createdAt,value
2019-05-25T00:00:58.756Z,12.23
2019-05-25T00:06:05.149Z,12.25
2019-05-25T00:08:34.651Z,12.23
2019-05-25T00:11:03.812Z,12.11
2019-05-25T00:13:32.536Z,12.08
2019-05-25T00:16:01.165Z,11.93
2019-05-25T00:18:30.586Z,11.82
2019-05-25T00:23:36.883Z,11.83
2019-05-25T00:28:45.448Z,11.64
2019-05-25T00:31:14.528Z,11.55
2019-05-25T00:33:43.900Z,11.51
2019-05-25T00:36:12.693Z,11.54
2019-05-25T00:38:41.403Z,11.39
2019-05-25T00:41:10.083Z,11.53
2019-05-25T00:43:39.119Z,11.41
2019-05-25T00:48:47.332Z,11.38
2019-05-25T00:51:16.367Z,11.41
2019-05-25T00:53:45.606Z,11.27
2019-05-25T00:56:15.280Z,11.19
2019-05-25T00:58:44.358Z,11.21
2019-05-25T01:01:12.984Z,11.18
2019-05-25T01:03:42.283Z,11.20
2019-05-25T01:06:11.322Z,11.14
2019-05-25T01:08:40.163Z,11.20
2019-05-25T01:11:09.229Z,11.19
2019-05-25T01:13:38.241Z,11.14
2019-05-25T01:16:08.194Z,11.02
2019-05-25T01:18:37.237Z,10.96
2019-05-25T01:23:43.444Z,11.00
2019-05-25T01:26:12.116Z,10.92
2019-05-25T01:28:41.193Z,10.87
2019-05-25T01:31:09.917Z,10.79
2019-05-25T01:33:38.537Z,10.62
2019-05-25T01:36:07.294Z,10.69
2019-05-25T01:38:36.327Z,10.71
2019-05-25T01:41:05.345Z,10.69
2019-05-25T01:43:34.009Z,10.68
2019-05-25T01:46:02.717Z,10.62
2019-05-25T01:48:31.925Z,10.58
2019-05-25T01:51:01.448Z,10.56
2019-05-25T01:53:30.759Z,10.46
2019-05-25T01:58:37.466Z,10.46
2019-05-25T02:01:06.543Z,10.40
2019-05-25T02:03:35.185Z,10.32
2019-05-25T02:08:43.352Z,10.41
2019-05-25T02:11:11.970Z,10.31
2019-05-25T02:16:22.901Z,10.27
2019-05-25T02:18:52.129Z,10.42
2019-05-25T02:21:21.386Z,10.42
2019-05-25T02:23:51.089Z,10.41
2019-05-25T02:26:41.481Z,10.36
2019-05-25T02:29:25.118Z,10.34
2019-05-25T02:32:05.390Z,10.38
2019-05-25T02:37:42.395Z,10.57
2019-05-25T02:40:36.550Z,10.55
2019-05-25T02:43:22.787Z,10.69
2019-05-25T02:48:41.264Z,10.67
2019-05-25T02:51:29.539Z,10.62
2019-05-25T02:57:14.565Z,10.74
2019-05-25T03:00:13.594Z,10.73
2019-05-25T03:03:01.354Z,10.71
2019-05-25T03:08:26.391Z,10.87
2019-05-25T03:10:56.149Z,10.78
2019-05-25T03:13:25.332Z,10.74
2019-05-25T03:15:53.998Z,10.78
2019-05-25T03:18:50.309Z,10.78
2019-05-25T03:24:43.230Z,10.82
2019-05-25T03:30:27.266Z,10.91
2019-05-25T03:36:07.609Z,10.93
2019-05-25T03:39:02.744Z,10.90
2019-05-25T03:41:54.726Z,10.99
2019-05-25T03:44:23.290Z,10.96
2019-05-25T03:47:13.722Z,11.02
2019-05-25T03:50:12.591Z,11.01
2019-05-25T03:52:59.606Z,11.02
2019-05-25T03:55:41.259Z,11.01
2019-05-25T04:01:11.943Z,11.15
2019-05-25T04:06:46.253Z,11.09
2019-05-25T04:09:26.112Z,10.98
2019-05-25T04:12:09.578Z,11.07
2019-05-25T04:17:41.156Z,11.05
2019-05-25T04:20:20.881Z,11.07
2019-05-25T04:25:56.390Z,11.03
2019-05-25T04:31:46.218Z,11.21
2019-05-25T04:37:20.666Z,11.15
2019-05-25T04:39:49.671Z,11.21
2019-05-25T04:42:18.292Z,11.28
2019-05-25T04:44:47.447Z,11.36
2019-05-25T04:47:26.549Z,11.38
2019-05-25T04:49:46.873Z,11.35
2019-05-25T04:52:15.533Z,11.27
2019-05-25T04:54:44.904Z,11.39
2019-05-25T04:57:13.592Z,11.43
2019-05-25T04:59:43.758Z,11.47
2019-05-25T05:02:12.423Z,11.53
2019-05-25T05:04:42.394Z,11.62
2019-05-25T05:07:11.058Z,11.50
2019-05-25T05:12:20.209Z,11.60
2019-05-25T05:14:48.956Z,11.62
2019-05-25T05:17:17.639Z,11.55
2019-05-25T05:19:46.268Z,11.56
2019-05-25T05:22:14.908Z,11.60
2019-05-25T05:24:43.533Z,11.64
2019-05-25T05:29:51.618Z,11.80
2019-05-25T05:32:27.444Z,11.60
2019-05-25T05:34:51.119Z,11.66
2019-05-25T05:37:22.090Z,11.63
2019-05-25T05:39:52.979Z,11.66
2019-05-25T05:42:25.449Z,11.71
2019-05-25T05:44:57.392Z,11.71
2019-05-25T05:47:27.786Z,11.85
2019-05-25T05:50:00.270Z,11.78
2019-05-25T05:52:37.951Z,11.82
2019-05-25T05:55:08.894Z,11.84
2019-05-25T05:57:37.826Z,11.75
2019-05-25T06:00:08.812Z,11.81
2019-05-25T06:02:39.020Z,11.83
2019-05-25T06:05:08.454Z,11.87
2019-05-25T06:07:37.497Z,11.96
2019-05-25T06:10:08.194Z,12.07
2019-05-25T06:12:37.220Z,11.98
2019-05-25T06:15:06.975Z,12.11
2019-05-25T06:17:35.631Z,12.14
2019-05-25T06:20:05.592Z,12.18
2019-05-25T06:22:35.047Z,12.05
2019-05-25T06:25:04.648Z,12.08
2019-05-25T06:30:13.849Z,12.20
2019-05-25T06:32:42.541Z,12.16
2019-05-25T06:37:50.148Z,12.25
2019-05-25T06:42:57.124Z,12.49
2019-05-25T06:45:25.746Z,12.47
2019-05-25T06:47:54.761Z,12.58
2019-05-25T06:50:23.721Z,12.40
2019-05-25T06:55:29.927Z,12.46
2019-05-25T07:00:36.524Z,12.66
2019-05-25T07:03:06.538Z,12.56
2019-05-25T07:05:35.485Z,12.78
2019-05-25T07:08:04.170Z,12.81
2019-05-25T07:10:32.782Z,12.76
2019-05-25T07:13:02.244Z,12.66
2019-05-25T07:15:31.022Z,12.61
2019-05-25T07:18:00.052Z,12.50
2019-05-25T07:20:28.660Z,12.52
2019-05-25T07:22:58.835Z,12.51
2019-05-25T07:25:28.064Z,12.57
2019-05-25T07:28:00.091Z,12.55
2019-05-25T07:30:27.725Z,12.47
2019-05-25T07:32:56.441Z,12.48
2019-05-25T07:35:25.039Z,12.64
2019-05-25T07:37:53.712Z,12.59
2019-05-25T07:42:59.929Z,12.67
2019-05-25T07:45:28.893Z,12.69
2019-05-25T07:47:57.627Z,12.89
2019-05-25T07:50:26.635Z,12.70
2019-05-25T07:52:55.251Z,12.90
2019-05-25T07:58:15.630Z,12.68
2019-05-25T08:00:31.669Z,12.97
2019-05-25T08:05:38.474Z,13.07
2019-05-25T08:10:44.666Z,13.23
2019-05-25T08:13:13.321Z,13.18
2019-05-25T08:18:19.646Z,13.30
2019-05-25T08:20:49.061Z,13.12
2019-05-25T08:23:18.014Z,13.16
2019-05-25T08:25:47.015Z,13.05
2019-05-25T08:28:29.838Z,13.11
2019-05-25T08:30:46.120Z,12.95
2019-05-25T08:33:14.748Z,13.10
2019-05-25T08:38:20.891Z,13.46
2019-05-25T08:40:50.114Z,13.46
2019-05-25T08:43:19.460Z,13.43
2019-05-25T08:45:48.316Z,13.58
2019-05-25T08:48:16.922Z,13.75
2019-05-25T08:50:46.201Z,13.55
2019-05-25T08:53:15.167Z,13.92
2019-05-25T08:55:44.464Z,13.81
2019-05-25T08:58:13.442Z,13.56
2019-05-25T09:00:42.486Z,13.62
2019-05-25T09:03:12.192Z,13.40
2019-05-25T09:05:41.220Z,13.42
2019-05-25T09:08:10.591Z,13.55
2019-05-25T09:10:39.510Z,13.40
2019-05-25T09:13:08.107Z,13.57
2019-05-25T09:18:13.784Z,13.47
2019-05-25T09:20:42.442Z,13.41
2019-05-25T09:23:11.421Z,13.63
2019-05-25T09:25:40.342Z,13.94
2019-05-25T09:28:09.046Z,13.79
2019-05-25T09:30:37.669Z,14.04
2019-05-25T09:33:06.613Z,13.82
2019-05-25T09:35:35.836Z,14.21
2019-05-25T09:38:04.810Z,14.33
2019-05-25T09:40:34.065Z,14.44
2019-05-25T09:43:03.036Z,14.54
2019-05-25T09:48:11.722Z,15.33
2019-05-25T09:50:40.651Z,15.20
2019-05-25T09:53:09.644Z,15.48
2019-05-25T09:55:38.325Z,15.77
2019-05-25T09:58:07.286Z,16.35
2019-05-25T10:00:40.024Z,16.13
2019-05-25T10:03:06.986Z,15.95
2019-05-25T10:08:15.737Z,15.74
2019-05-25T10:10:44.635Z,16.00
2019-05-25T10:13:14.204Z,16.51
2019-05-25T10:15:43.140Z,16.37
2019-05-25T10:18:11.755Z,16.87
2019-05-25T10:20:40.605Z,16.20
2019-05-25T10:23:10.463Z,16.76
2019-05-25T10:28:16.844Z,17.23
2019-05-25T10:30:45.781Z,16.95
2019-05-25T10:35:51.962Z,16.56
2019-05-25T10:38:20.573Z,17.03
2019-05-25T10:40:49.365Z,16.78
2019-05-25T10:43:18.054Z,16.91
2019-05-25T10:45:47.039Z,17.34
2019-05-25T10:48:15.950Z,17.23
2019-05-25T10:50:45.539Z,16.97
2019-05-25T10:53:14.189Z,17.19
2019-05-25T10:55:43.561Z,16.94
2019-05-25T10:58:12.516Z,17.52
2019-05-25T11:03:18.759Z,17.18
2019-05-25T11:05:47.679Z,16.78
2019-05-25T11:08:17.231Z,17.28
2019-05-25T11:10:46.016Z,16.96
2019-05-25T11:13:14.642Z,16.87
2019-05-25T11:15:43.681Z,17.10
2019-05-25T11:18:12.730Z,17.21
2019-05-25T11:20:41.988Z,17.44
2019-05-25T11:23:10.890Z,17.10
2019-05-25T11:25:39.850Z,17.25
2019-05-25T11:28:09.132Z,16.93
2019-05-25T11:30:38.058Z,17.14
2019-05-25T11:33:06.677Z,17.10
2019-05-25T11:38:15.681Z,17.00
2019-05-25T11:43:22.122Z,16.88
2019-05-25T11:45:50.783Z,17.12
2019-05-25T11:50:59.916Z,16.96
2019-05-25T11:53:28.894Z,16.73
2019-05-25T11:55:58.010Z,16.60
2019-05-25T11:58:27.324Z,16.69
2019-05-25T12:00:55.967Z,16.40
2019-05-25T12:03:24.628Z,16.55
2019-05-25T12:05:53.436Z,16.68
2019-05-25T12:08:22.067Z,16.73
2019-05-25T12:10:50.680Z,16.25
2019-05-25T12:13:19.321Z,16.32
2019-05-25T12:15:48.457Z,15.93
2019-05-25T12:20:55.657Z,15.67
2019-05-25T12:23:24.607Z,16.01
2019-05-25T12:25:53.231Z,15.66
2019-05-25T12:28:22.265Z,15.99
2019-05-25T12:30:51.181Z,15.76
2019-05-25T12:33:20.083Z,16.30
2019-05-25T12:35:48.982Z,16.03
2019-05-25T12:38:17.916Z,16.05
2019-05-25T12:40:53.566Z,16.10
2019-05-25T12:43:17.667Z,16.06
2019-05-25T12:45:46.316Z,16.12
2019-05-25T12:48:15.581Z,16.10
2019-05-25T12:50:44.232Z,16.17
2019-05-25T12:53:13.502Z,16.32
2019-05-25T12:55:42.125Z,16.10
2019-05-25T12:58:10.811Z,16.25
2019-05-25T13:00:39.499Z,16.33
2019-05-25T13:03:11.025Z,15.81
2019-05-25T13:05:40.305Z,15.80
2019-05-25T13:08:08.909Z,15.45
2019-05-25T13:10:38.986Z,15.84
2019-05-25T13:13:07.942Z,15.56
2019-05-25T13:15:36.610Z,15.63
2019-05-25T13:18:05.608Z,16.06
2019-05-25T13:20:34.274Z,15.76
2019-05-25T13:23:05.450Z,15.84
2019-05-25T13:25:34.243Z,16.18
2019-05-25T13:28:02.906Z,15.81
2019-05-25T13:30:31.865Z,16.07
2019-05-25T13:33:00.478Z,16.38
2019-05-25T13:35:29.123Z,15.99
2019-05-25T13:37:58.110Z,15.95
2019-05-25T13:40:26.711Z,16.07
2019-05-25T13:42:55.744Z,16.01
2019-05-25T13:45:24.345Z,16.07
2019-05-25T13:47:53.289Z,16.02
2019-05-25T13:50:21.935Z,16.24
2019-05-25T13:52:51.066Z,16.42
2019-05-25T13:55:19.670Z,16.12
2019-05-25T14:00:26.207Z,16.62
2019-05-25T14:02:54.983Z,16.55
2019-05-25T14:05:24.184Z,16.47
2019-05-25T14:07:53.189Z,16.41
2019-05-25T14:10:22.145Z,16.72
2019-05-25T14:15:31.050Z,16.65
2019-05-25T14:17:59.943Z,16.74
2019-05-25T14:23:06.479Z,16.67
2019-05-25T14:25:35.633Z,16.65
2019-05-25T14:28:04.575Z,16.45
2019-05-25T14:30:33.241Z,16.56
2019-05-25T14:33:02.379Z,16.76
2019-05-25T14:35:31.544Z,16.61
2019-05-25T14:38:00.387Z,16.41
2019-05-25T14:40:29.339Z,16.26
2019-05-25T14:42:58.012Z,16.35
2019-05-25T14:45:27.036Z,16.46
2019-05-25T14:47:55.957Z,15.98
2019-05-25T14:50:24.577Z,16.30
2019-05-25T14:52:53.566Z,16.11
2019-05-25T14:55:22.546Z,16.02
2019-05-25T15:00:30.995Z,15.75
2019-05-25T15:05:37.301Z,16.00
2019-05-25T15:08:05.989Z,15.85
2019-05-25T15:10:35.061Z,15.90
2019-05-25T15:13:03.757Z,15.94
2019-05-25T15:15:32.842Z,16.00
2019-05-25T15:18:01.792Z,15.97
2019-05-25T15:20:30.476Z,16.19
2019-05-25T15:23:00.193Z,15.89
2019-05-25T15:25:29.224Z,15.84
2019-05-25T15:27:58.216Z,15.75
2019-05-25T15:30:26.841Z,15.90
2019-05-25T15:32:56.182Z,15.84
2019-05-25T15:35:24.875Z,15.84
2019-05-25T15:40:31.039Z,15.97
2019-05-25T15:45:37.457Z,16.01
2019-05-25T15:48:06.080Z,16.13
2019-05-25T15:50:34.886Z,16.13
2019-05-25T15:53:03.572Z,15.82
2019-05-25T15:58:10.194Z,15.93
2019-05-25T16:00:49.967Z,15.87
2019-05-25T16:03:19.951Z,15.93
2019-05-25T16:08:26.349Z,15.92
2019-05-25T16:10:56.161Z,15.68
2019-05-25T16:13:26.693Z,15.78
2019-05-25T16:15:55.430Z,15.66
2019-05-25T16:18:24.176Z,15.66
2019-05-25T16:20:53.952Z,15.47
2019-05-25T16:23:22.613Z,15.32
2019-05-25T16:25:51.610Z,15.37
2019-05-25T16:28:20.254Z,15.54
2019-05-25T16:30:48.985Z,15.54
2019-05-25T16:33:17.606Z,15.43
2019-05-25T16:35:46.242Z,15.36
2019-05-25T16:38:14.893Z,15.47
2019-05-25T16:40:43.509Z,15.39
2019-05-25T16:43:12.131Z,15.30
2019-05-25T16:45:41.097Z,15.41
2019-05-25T16:48:10.009Z,15.29
2019-05-25T16:50:38.666Z,15.40
2019-05-25T16:53:07.342Z,15.33
2019-05-25T16:55:35.948Z,15.34
2019-05-25T16:58:04.574Z,15.34
2019-05-25T17:00:33.513Z,15.30
2019-05-25T17:03:02.132Z,15.32
2019-05-25T17:05:30.734Z,15.31
2019-05-25T17:07:59.563Z,15.41
2019-05-25T17:10:28.470Z,15.35
2019-05-25T17:12:57.086Z,15.35
2019-05-25T17:15:26.089Z,15.36
2019-05-25T17:17:55.681Z,15.32
2019-05-25T17:20:24.712Z,15.37
2019-05-25T17:22:53.414Z,15.36
2019-05-25T17:25:22.521Z,15.41
2019-05-25T17:27:51.142Z,15.30
2019-05-25T17:30:42.432Z,15.24
2019-05-25T17:33:11.524Z,15.31
2019-05-25T17:38:19.615Z,15.24
2019-05-25T17:40:48.319Z,15.20
2019-05-25T17:43:17.676Z,15.20
2019-05-25T17:48:25.582Z,15.19
2019-05-25T17:50:54.224Z,15.13
2019-05-25T17:53:23.422Z,15.12
2019-05-25T17:55:52.123Z,15.04
2019-05-25T17:58:21.083Z,15.07
2019-05-25T18:00:50.415Z,15.05
2019-05-25T18:03:19.435Z,14.98
2019-05-25T18:08:27.491Z,14.94
2019-05-25T18:10:56.140Z,14.93
2019-05-25T18:13:28.546Z,14.96
2019-05-25T18:15:55.612Z,14.92
2019-05-25T18:18:24.236Z,14.87
2019-05-25T18:20:52.874Z,14.77
2019-05-25T18:23:22.138Z,14.67
2019-05-25T18:25:50.956Z,14.77
2019-05-25T18:28:19.594Z,14.76
2019-05-25T18:30:48.427Z,14.67
2019-05-25T18:33:17.330Z,14.68
2019-05-25T18:35:45.934Z,14.64
2019-05-25T18:38:14.924Z,14.62
2019-05-25T18:43:20.650Z,14.59
2019-05-25T18:45:50.240Z,14.53
2019-05-25T18:48:18.895Z,14.45
2019-05-25T18:50:47.727Z,14.41
2019-05-25T18:53:16.830Z,14.43
2019-05-25T18:55:45.477Z,14.37
2019-05-25T18:58:14.508Z,14.39
2019-05-25T19:03:20.204Z,14.43
2019-05-25T19:05:48.997Z,14.37
2019-05-25T19:10:55.506Z,14.32
2019-05-25T19:16:02.438Z,14.34
2019-05-25T19:18:31.081Z,14.20
2019-05-25T19:23:37.234Z,14.31
2019-05-25T19:26:05.861Z,14.23
2019-05-25T19:28:34.478Z,14.17
2019-05-25T19:31:03.170Z,14.19
2019-05-25T19:33:32.194Z,14.09
2019-05-25T19:38:40.354Z,14.01
2019-05-25T19:41:08.964Z,13.87
2019-05-25T19:43:37.592Z,13.92
2019-05-25T19:46:06.638Z,13.89
2019-05-25T19:51:14.729Z,13.97
2019-05-25T19:53:43.342Z,13.99
2019-05-25T19:56:11.979Z,13.98
2019-05-25T19:58:40.643Z,13.92
2019-05-25T20:03:47.133Z,13.92
2019-05-25T20:06:15.766Z,13.82
2019-05-25T20:08:44.687Z,13.73
2019-05-25T20:11:13.321Z,13.84
2019-05-25T20:13:41.943Z,13.77
2019-05-25T20:16:10.567Z,13.83
2019-05-25T20:18:39.575Z,13.73
2019-05-25T20:21:08.232Z,13.82
2019-05-25T20:23:37.438Z,13.74
2019-05-25T20:26:06.109Z,13.74
2019-05-25T20:28:34.728Z,13.72
2019-05-25T20:33:46.383Z,13.74
2019-05-25T20:36:15.380Z,13.61
2019-05-25T20:38:43.999Z,13.69
2019-05-25T20:43:50.252Z,13.61
2019-05-25T20:46:19.189Z,13.56
2019-05-25T20:48:47.822Z,13.57
2019-05-25T20:51:16.513Z,13.56
2019-05-25T20:53:45.776Z,13.50
2019-05-25T20:56:14.376Z,13.48
2019-05-25T20:58:43.043Z,13.52
2019-05-25T21:01:11.664Z,13.49
2019-05-25T21:03:40.608Z,13.47
2019-05-25T21:08:47.142Z,13.38
2019-05-25T21:11:16.130Z,13.32
2019-05-25T21:13:45.789Z,13.31
2019-05-25T21:16:14.440Z,13.27
2019-05-25T21:18:43.087Z,13.27
2019-05-25T21:23:49.767Z,13.16
2019-05-25T21:26:18.421Z,13.05
2019-05-25T21:28:47.314Z,12.96
2019-05-25T21:31:16.368Z,12.95
2019-05-25T21:33:44.989Z,12.84
2019-05-25T21:38:57.103Z,12.74
2019-05-25T21:41:25.739Z,12.66
2019-05-25T21:46:32.243Z,12.58
2019-05-25T21:49:00.881Z,12.41
2019-05-25T21:51:29.918Z,12.26
2019-05-25T21:53:59.126Z,12.23
2019-05-25T21:56:28.112Z,12.15
2019-05-25T21:58:57.045Z,12.11
2019-05-25T22:01:26.239Z,12.06
2019-05-25T22:03:54.869Z,11.95
2019-05-25T22:06:24.770Z,11.94
2019-05-25T22:08:53.629Z,11.89
2019-05-25T22:13:59.919Z,11.80
2019-05-25T22:16:28.920Z,11.66
2019-05-25T22:18:57.649Z,11.56
2019-05-25T22:21:26.652Z,11.48
2019-05-25T22:23:55.638Z,11.45
2019-05-25T22:26:24.292Z,11.34
2019-05-25T22:28:52.958Z,11.30
2019-05-25T22:31:21.854Z,11.25
2019-05-25T22:36:39.634Z,11.29
2019-05-25T22:38:58.847Z,11.13
2019-05-25T22:41:27.455Z,11.18
2019-05-25T22:43:56.148Z,11.18
2019-05-25T22:46:24.751Z,11.05
2019-05-25T22:51:33.633Z,11.04
2019-05-25T22:54:02.947Z,10.99
2019-05-25T22:56:31.847Z,10.85
2019-05-25T22:59:01.031Z,10.78
2019-05-25T23:04:09.381Z,10.66
2019-05-25T23:06:38.018Z,10.55
2019-05-25T23:09:07.304Z,10.52
2019-05-25T23:11:36.293Z,10.48
2019-05-25T23:14:05.087Z,10.38
2019-05-25T23:16:34.029Z,10.40
2019-05-25T23:19:02.736Z,10.35
2019-05-25T23:21:31.747Z,10.31
2019-05-25T23:24:00.590Z,10.38
2019-05-25T23:26:29.317Z,10.43
2019-05-25T23:28:58.293Z,10.40
2019-05-25T23:31:26.850Z,10.42
2019-05-25T23:33:55.552Z,10.36
2019-05-25T23:36:24.167Z,10.37
2019-05-25T23:41:30.172Z,10.28
2019-05-25T23:43:59.952Z,10.22
2019-05-25T23:46:29.129Z,10.21
2019-05-25T23:48:57.801Z,10.19
2019-05-25T23:51:26.431Z,10.17
2019-05-25T23:53:55.474Z,10.12
2019-05-25T23:56:24.485Z,10.09
